createdAt,value
2018-04-10T06:26:05.595Z,18.23
2018-04-10T06:28:14.466Z,17.93
2018-04-10T06:30:23.349Z,18.57
2018-04-10T06:32:32.088Z,16.47
2018-04-10T06:34:40.944Z,17.03
2018-04-10T06:36:49.795Z,17.33
2018-04-10T06:38:58.527Z,17.30
2018-04-10T06:41:07.802Z,16.47
2018-04-10T06:43:16.697Z,15.13
2018-04-10T06:45:25.998Z,15.63
2018-04-10T06:47:35.553Z,15.90
2018-04-10T06:49:44.359Z,13.77
2018-04-10T06:51:54.025Z,14.60
2018-04-10T06:54:02.858Z,14.53
2018-04-10T06:56:11.560Z,13.87
2018-04-10T06:58:20.349Z,14.03
2018-04-10T07:00:29.284Z,13.50
2018-04-10T07:02:37.889Z,13.03
2018-04-10T07:04:46.596Z,12.97
2018-04-10T07:06:55.367Z,12.10
2018-04-10T07:09:05.030Z,12.13
2018-04-10T07:11:14.269Z,11.17
2018-04-10T07:13:24.003Z,11.13
2018-04-10T07:15:32.731Z,10.37
2018-04-10T07:17:41.409Z,10.57
2018-04-10T07:19:50.305Z,10.87
2018-04-10T07:21:58.991Z,10.60
2018-04-10T07:24:08.584Z,10.40
2018-04-10T07:26:17.248Z,10.17
2018-04-10T07:28:26.852Z,9.60
2018-04-10T07:30:35.689Z,10.43
2018-04-10T07:32:45.154Z,10.33
2018-04-10T07:34:53.948Z,10.37
2018-04-10T07:37:04.255Z,10.50
2018-04-10T07:39:12.985Z,9.90
2018-04-10T07:41:21.549Z,9.73
2018-04-10T07:43:30.363Z,9.23
2018-04-10T07:45:39.280Z,9.57
2018-04-10T07:47:47.997Z,9.23
2018-04-10T07:49:56.688Z,9.13
2018-04-10T07:52:05.513Z,8.13
2018-04-10T07:54:08.601Z,9.37
2018-04-10T07:56:11.712Z,8.77
2018-04-10T07:58:14.928Z,8.33
2018-04-10T08:00:18.047Z,8.03
2018-04-10T08:02:21.165Z,6.80
2018-04-10T08:04:25.234Z,7.70
2018-04-10T08:06:28.334Z,7.60
2018-04-10T08:08:31.482Z,6.43
2018-04-10T08:10:34.598Z,6.90
2018-04-10T08:12:37.769Z,7.80
2018-04-10T08:14:40.919Z,6.70
2018-04-10T08:16:44.106Z,6.53
2018-04-10T08:18:47.335Z,6.70
2018-04-10T08:20:50.455Z,6.87
2018-04-10T08:22:54.341Z,6.70
2018-04-10T08:24:57.494Z,6.23
2018-04-10T08:27:00.603Z,4.87
2018-04-10T08:29:03.814Z,4.00
2018-04-10T08:31:07.697Z,4.67
2018-04-10T08:33:10.820Z,5.33
2018-04-10T08:35:14.706Z,3.53
2018-04-10T08:37:18.593Z,4.40
2018-04-10T08:39:21.749Z,4.80
2018-04-10T08:41:24.969Z,5.70
2018-04-10T08:43:28.099Z,4.73
2018-04-10T08:45:31.228Z,4.90
2018-04-10T08:47:34.375Z,4.93
2018-04-10T08:49:37.524Z,5.30
2018-04-10T08:51:41.432Z,5.77
2018-04-10T08:53:45.322Z,5.53
2018-04-10T08:55:48.429Z,6.50
2018-04-10T08:57:52.329Z,4.80
2018-04-10T08:59:56.212Z,4.30
2018-04-10T09:01:59.348Z,5.23
2018-04-10T09:04:02.515Z,4.40
2018-04-10T09:06:06.454Z,3.90
2018-04-10T09:08:09.699Z,3.77
2018-04-10T09:10:13.568Z,3.70
2018-04-10T09:12:16.678Z,3.53
2018-04-10T09:14:20.572Z,4.07
2018-04-10T09:16:24.826Z,4.10
2018-04-10T09:18:27.926Z,3.40
2018-04-10T09:20:31.059Z,3.77
2018-04-10T09:22:34.215Z,3.70
2018-04-10T09:24:37.326Z,3.63
2018-04-10T09:26:40.438Z,2.60
2018-04-10T09:28:44.320Z,2.50
2018-04-10T09:30:47.437Z,2.67
2018-04-10T09:32:51.295Z,3.60
2018-04-10T09:34:54.417Z,3.57
2018-04-10T09:36:58.319Z,3.53
2018-04-10T09:39:02.252Z,3.30
2018-04-10T09:41:05.604Z,2.70
2018-04-10T09:43:09.573Z,2.57
2018-04-10T09:45:12.827Z,2.47
2018-04-10T09:47:16.059Z,3.30
2018-04-10T09:49:19.208Z,2.70
2018-04-10T09:51:22.396Z,2.50
2018-04-10T09:53:25.533Z,2.40
2018-04-10T09:55:28.705Z,2.47
2018-04-10T09:57:31.888Z,2.17
2018-04-10T09:59:35.036Z,1.83
2018-04-10T10:01:38.212Z,1.80
2018-04-10T10:03:41.344Z,2.00
2018-04-10T10:05:44.525Z,2.10
2018-04-10T10:07:47.656Z,1.80
2018-04-10T10:09:51.541Z,2.00
2018-04-10T10:11:54.716Z,1.80
2018-04-10T10:13:57.865Z,2.10
2018-04-10T10:16:01.016Z,2.07
2018-04-10T10:18:08.043Z,2.17
2018-04-10T10:20:11.229Z,2.27
2018-04-10T10:22:18.718Z,1.93
2018-04-10T10:24:21.803Z,2.37
2018-04-10T10:26:25.653Z,2.90
2018-04-10T10:28:29.538Z,2.33
2018-04-10T10:30:32.646Z,2.83
2018-04-10T10:32:37.143Z,2.33
2018-04-10T10:34:40.290Z,2.73
2018-04-10T10:36:43.434Z,3.20
2018-04-10T10:38:47.392Z,3.30
2018-04-10T10:40:50.568Z,3.30
2018-04-10T10:42:53.817Z,3.10
2018-04-10T10:44:57.734Z,2.77
2018-04-10T10:47:01.466Z,2.60
2018-04-10T10:49:05.332Z,2.30
2018-04-10T10:51:08.492Z,2.80
2018-04-10T10:53:11.605Z,2.50
2018-04-10T10:55:14.744Z,1.97
2018-04-10T10:57:17.915Z,2.13
2018-04-10T10:59:21.034Z,2.10
2018-04-10T11:01:25.112Z,2.20
2018-04-10T11:03:28.250Z,2.20
2018-04-10T11:05:33.204Z,2.10
2018-04-10T11:07:37.116Z,2.57
2018-04-10T11:09:40.917Z,2.00
2018-04-10T11:11:44.024Z,2.07
2018-04-10T11:13:47.191Z,1.90
2018-04-10T11:15:50.365Z,2.40
2018-04-10T11:17:53.509Z,2.30
2018-04-10T11:19:56.621Z,2.73
2018-04-10T11:21:59.731Z,2.03
2018-04-10T11:24:02.845Z,2.47
2018-04-10T11:26:05.969Z,2.10
2018-04-10T11:28:09.858Z,2.00
2018-04-10T11:30:13.739Z,2.00
2018-04-10T11:32:17.320Z,2.37
2018-04-10T11:34:20.443Z,2.40
2018-04-10T11:36:24.343Z,2.17
2018-04-10T11:38:28.290Z,2.30
2018-04-10T11:40:31.476Z,1.93
2018-04-10T11:42:34.635Z,2.03
2018-04-10T11:44:38.526Z,1.60
2018-04-10T11:46:42.431Z,2.00
2018-04-10T11:48:45.738Z,1.93
2018-04-10T11:50:49.641Z,1.83
2018-04-10T11:52:52.772Z,2.13
2018-04-10T11:54:55.973Z,2.30
2018-04-10T11:56:59.753Z,2.30
2018-04-10T11:59:02.966Z,2.73
2018-04-10T12:01:06.152Z,2.27
2018-04-10T12:03:09.375Z,2.77
2018-04-10T12:05:13.303Z,5.27
2018-04-10T12:07:16.419Z,5.40
2018-04-10T12:09:19.576Z,4.50
2018-04-10T12:11:22.664Z,4.80
2018-04-10T12:13:25.862Z,5.03
2018-04-10T12:15:29.035Z,4.80
2018-04-10T12:17:32.149Z,3.80
2018-04-10T12:19:35.381Z,4.33
2018-04-10T12:21:39.326Z,5.03
2018-04-10T12:23:42.463Z,4.93
2018-04-10T12:25:46.399Z,5.00
2018-04-10T12:27:49.572Z,4.00
2018-04-10T12:29:52.867Z,4.60
2018-04-10T12:31:56.036Z,5.03
2018-04-10T12:33:59.940Z,4.00
2018-04-10T12:36:03.824Z,3.33
2018-04-10T12:38:06.973Z,4.10
2018-04-10T12:40:10.197Z,3.60
2018-04-10T12:42:13.377Z,4.60
2018-04-10T12:44:16.628Z,4.50
2018-04-10T12:46:19.755Z,3.30
2018-04-10T12:48:23.764Z,3.80
2018-04-10T12:50:27.691Z,3.93
2018-04-10T12:52:30.842Z,3.87
2018-04-10T12:54:34.043Z,3.67
2018-04-10T12:56:37.266Z,3.93
2018-04-10T12:58:40.404Z,3.00
2018-04-10T13:00:43.543Z,2.97
2018-04-10T13:02:46.758Z,3.20
2018-04-10T13:04:49.965Z,3.20
2018-04-10T13:06:53.072Z,3.53
2018-04-10T13:08:57.666Z,3.20
2018-04-10T13:11:00.796Z,2.50
2018-04-10T13:13:03.993Z,3.30
2018-04-10T13:15:07.250Z,3.97
2018-04-10T13:17:10.384Z,3.60
2018-04-10T13:19:14.366Z,3.97
2018-04-10T13:21:18.281Z,4.00
2018-04-10T13:23:21.469Z,4.10
2018-04-10T13:25:24.592Z,4.57
2018-04-10T13:27:27.771Z,2.87
2018-04-10T13:29:30.934Z,3.57
2018-04-10T13:31:34.142Z,3.40
2018-04-10T13:33:37.265Z,3.30
2018-04-10T13:35:41.144Z,3.00
2018-04-10T13:37:44.328Z,2.30
2018-04-10T13:39:47.524Z,3.20
2018-04-10T13:41:50.650Z,3.17
2018-04-10T13:43:53.805Z,5.30
2018-04-10T13:45:57.800Z,5.37
2018-04-10T13:48:01.016Z,5.23
2018-04-10T13:50:04.181Z,5.00
2018-04-10T13:52:07.328Z,4.63
2018-04-10T13:54:10.500Z,4.80
2018-04-10T13:56:13.670Z,5.10
2018-04-10T13:58:16.820Z,4.43
2018-04-10T14:00:19.993Z,4.70
2018-04-10T14:02:23.161Z,4.70
2018-04-10T14:04:26.386Z,4.03
2018-04-10T14:06:29.510Z,4.40
2018-04-10T14:08:32.719Z,4.87
2018-04-10T14:10:35.839Z,4.57
2018-04-10T14:12:39.825Z,4.73
2018-04-10T14:14:43.711Z,4.67
2018-04-10T14:16:47.393Z,5.03
2018-04-10T14:18:50.592Z,4.50
2018-04-10T14:20:53.714Z,4.20
2018-04-10T14:22:56.884Z,3.83
2018-04-10T14:25:00.022Z,3.97
2018-04-10T14:27:05.012Z,3.80
2018-04-10T14:29:08.325Z,3.87
2018-04-10T14:31:11.490Z,3.67
2018-04-10T14:33:14.989Z,3.80
2018-04-10T14:35:18.938Z,3.77
2018-04-10T14:37:22.335Z,3.40
2018-04-10T14:39:26.731Z,2.90
2018-04-10T14:41:30.783Z,3.10
2018-04-10T14:43:33.935Z,3.90
2018-04-10T14:45:37.261Z,2.97
2018-04-10T14:47:40.415Z,2.77
2018-04-10T14:49:43.546Z,3.50
2018-04-10T14:51:46.692Z,3.40
2018-04-10T14:53:49.820Z,3.53
2018-04-10T14:55:53.027Z,4.10
2018-04-10T14:57:56.936Z,3.37
2018-04-10T15:00:00.081Z,3.17
2018-04-10T15:02:03.276Z,3.50
2018-04-10T15:04:06.468Z,3.30
2018-04-10T15:06:10.552Z,3.43
2018-04-10T15:08:13.828Z,3.93
2018-04-10T15:10:18.122Z,4.03
2018-04-10T15:12:21.332Z,4.37
2018-04-10T15:14:24.476Z,3.90
2018-04-10T15:16:27.657Z,3.97
2018-04-10T15:18:30.990Z,5.17
2018-04-10T15:20:34.154Z,5.50
2018-04-10T15:22:38.023Z,4.70
2018-04-10T15:24:41.160Z,5.10
2018-04-10T15:26:44.268Z,4.63
2018-04-10T15:28:47.451Z,4.70
2018-04-10T15:30:51.444Z,5.07
2018-04-10T15:32:54.575Z,4.93
2018-04-10T15:34:57.699Z,5.63
2018-04-10T15:37:00.833Z,4.67
2018-04-10T15:39:04.274Z,4.90
2018-04-10T15:41:08.201Z,5.80
2018-04-10T15:43:11.339Z,6.17
2018-04-10T15:45:15.275Z,5.20
2018-04-10T15:47:18.439Z,7.17
2018-04-10T15:49:22.376Z,6.10
2018-04-10T15:51:25.552Z,6.10
2018-04-10T15:53:29.479Z,5.90
2018-04-10T15:55:32.637Z,5.67
2018-04-10T15:57:36.590Z,7.73
2018-04-10T15:59:39.744Z,5.67
2018-04-10T16:01:42.882Z,5.53
2018-04-10T16:03:46.143Z,6.43
2018-04-10T16:05:49.259Z,6.27
2018-04-10T16:07:52.390Z,5.33
2018-04-10T16:09:55.536Z,5.70
2018-04-10T16:11:59.484Z,5.90
2018-04-10T16:14:02.638Z,5.40
2018-04-10T16:16:06.801Z,6.70
2018-04-10T16:18:09.901Z,6.63
2018-04-10T16:20:13.024Z,6.07
2018-04-10T16:22:16.944Z,6.83
2018-04-10T16:24:20.486Z,5.97
2018-04-10T16:26:23.697Z,5.90
2018-04-10T16:28:27.575Z,5.37
2018-04-10T16:30:30.733Z,5.90
2018-04-10T16:32:34.159Z,6.23
2018-04-10T16:34:37.306Z,6.63
2018-04-10T16:36:41.177Z,5.53
2018-04-10T16:38:44.347Z,5.57
2018-04-10T16:40:47.570Z,5.50
2018-04-10T16:42:50.700Z,5.47
2018-04-10T16:44:53.896Z,5.97
2018-04-10T16:46:57.134Z,5.60
2018-04-10T16:49:00.248Z,5.60
2018-04-10T16:51:03.364Z,5.37
2018-04-10T16:53:06.515Z,6.23
2018-04-10T16:55:09.696Z,5.50
2018-04-10T16:57:12.842Z,5.80
2018-04-10T16:59:16.758Z,6.50
2018-04-10T17:01:20.630Z,5.27
2018-04-10T17:03:23.883Z,5.83
2018-04-10T17:05:26.994Z,6.23
2018-04-10T17:07:30.212Z,6.13
2018-04-10T17:09:33.333Z,5.87
2018-04-10T17:11:36.470Z,6.53
2018-04-10T17:13:39.602Z,6.30
2018-04-10T17:15:42.724Z,5.93
2018-04-10T17:17:45.853Z,6.10
2018-04-10T17:19:48.994Z,6.57
2018-04-10T17:21:52.186Z,6.20
2018-04-10T17:23:55.321Z,6.00
2018-04-10T17:25:58.427Z,6.63
2018-04-10T17:28:01.585Z,5.83
2018-04-10T17:30:04.831Z,6.67
2018-04-10T17:32:07.957Z,5.93
2018-04-10T17:34:11.158Z,6.07
2018-04-10T17:36:15.235Z,5.53
2018-04-10T17:38:18.350Z,6.20
2018-04-10T17:40:21.601Z,5.33
2018-04-10T17:42:24.727Z,5.43
2018-04-10T17:44:27.857Z,5.20
2018-04-10T17:46:30.993Z,4.93
2018-04-10T17:48:34.212Z,5.97
2018-04-10T17:50:37.415Z,7.13
2018-04-10T17:52:40.555Z,8.37
2018-04-10T17:54:43.745Z,9.60
2018-04-10T17:56:46.898Z,9.63
2018-04-10T17:58:50.081Z,10.37
2018-04-10T18:00:54.044Z,11.27
2018-04-10T18:02:57.144Z,10.17
2018-04-10T18:05:00.274Z,10.63
2018-04-10T18:07:03.439Z,11.10
2018-04-10T18:11:17.304Z,11.60
2018-04-10T18:13:21.133Z,11.97
2018-04-10T18:15:24.319Z,12.40
2018-04-10T18:17:28.321Z,14.27
2018-04-10T18:19:31.682Z,14.30
2018-04-10T18:21:35.652Z,13.97
2018-04-10T18:23:38.876Z,13.97
2018-04-10T18:25:42.771Z,14.43
2018-04-10T18:27:46.700Z,15.17
2018-04-10T18:29:50.778Z,14.97
2018-04-10T18:31:53.949Z,16.00
2018-04-10T18:33:57.205Z,13.10
2018-04-10T18:36:00.360Z,14.63
2018-04-10T18:38:04.281Z,13.57
2018-04-10T18:40:07.526Z,14.50
2018-04-10T18:42:10.684Z,14.83
2018-04-10T18:44:14.102Z,15.63
2018-04-10T18:46:17.317Z,13.33
2018-04-10T18:48:20.568Z,15.63
2018-04-10T18:50:23.713Z,15.60
2018-04-10T18:52:26.919Z,15.67
2018-04-10T18:54:30.101Z,15.90
2018-04-10T18:56:33.343Z,16.23
2018-04-10T18:58:36.580Z,15.93
2018-04-10T19:00:39.776Z,17.27
2018-04-10T19:02:46.894Z,14.33
2018-04-10T19:04:50.078Z,16.43
2018-04-10T19:06:55.177Z,16.43
2018-04-10T19:08:58.405Z,21.60
2018-04-10T19:11:04.578Z,17.70
2018-04-10T19:13:08.528Z,19.37
2018-04-10T19:15:12.886Z,20.87
2018-04-10T19:17:16.906Z,20.20
2018-04-10T19:19:21.764Z,20.97
2018-04-10T19:21:25.936Z,21.17
2018-04-10T19:23:29.287Z,17.93
2018-04-10T19:25:32.425Z,16.63
2018-04-10T19:27:35.585Z,16.17
2018-04-10T19:29:38.932Z,15.33
2018-04-10T19:31:42.057Z,13.77
2018-04-10T19:33:45.231Z,12.83
2018-04-10T19:35:48.397Z,12.87
2018-04-10T19:37:51.540Z,12.20
2018-04-10T19:39:55.460Z,10.70
2018-04-10T19:41:59.385Z,10.07
2018-04-10T19:44:02.512Z,10.00
2018-04-10T19:46:06.511Z,8.57
2018-04-10T19:48:09.723Z,9.07
2018-04-10T19:50:12.883Z,8.87
2018-04-10T19:52:16.042Z,7.20
2018-04-10T19:54:19.555Z,8.27
2018-04-10T19:56:22.831Z,7.13
2018-04-10T19:58:25.995Z,7.87
2018-04-10T20:00:29.121Z,7.50
2018-04-10T20:02:32.244Z,6.33
2018-04-10T20:04:35.403Z,6.40
2018-04-10T20:06:38.611Z,5.83
2018-04-10T20:08:41.817Z,6.13
2018-04-10T20:10:45.497Z,6.80
2018-04-10T20:12:48.620Z,6.47
2018-04-10T20:14:51.784Z,6.63
2018-04-10T20:16:54.937Z,6.03
2018-04-10T20:18:58.908Z,6.20
2018-04-10T20:21:02.047Z,5.83
2018-04-10T20:23:05.155Z,5.63
2018-04-10T20:25:08.363Z,7.23
2018-04-10T20:27:11.971Z,6.53
2018-04-10T20:29:15.154Z,5.67
2018-04-10T20:31:18.286Z,7.17
2018-04-10T20:33:27.103Z,5.73
2018-04-10T20:35:30.989Z,6.10
2018-04-10T20:37:34.104Z,5.50
2018-04-10T20:39:37.232Z,6.13
2018-04-10T20:41:40.367Z,5.90
2018-04-10T20:43:44.239Z,5.77
2018-04-10T20:45:47.375Z,5.80
2018-04-10T20:47:50.511Z,6.07
2018-04-10T20:49:53.652Z,6.00
2018-04-10T20:51:56.895Z,6.47
2018-04-10T20:54:00.002Z,5.80
2018-04-10T20:56:03.958Z,5.77
2018-04-10T20:58:07.113Z,5.37
2018-04-10T21:00:10.233Z,5.83
2018-04-10T21:02:13.884Z,6.97
2018-04-10T21:04:17.053Z,4.93
2018-04-10T21:06:20.986Z,6.23
2018-04-10T21:08:24.177Z,6.33
2018-04-10T21:10:27.418Z,7.30
2018-04-10T21:12:30.543Z,6.37
2018-04-10T21:14:33.687Z,5.70
2018-04-10T21:16:37.723Z,6.60
2018-04-10T21:18:40.883Z,6.60
2018-04-10T21:20:44.824Z,6.53
2018-04-10T21:22:48.383Z,13.83
2018-04-10T21:24:52.318Z,19.97
2018-04-10T21:26:55.456Z,17.90
2018-04-10T21:28:59.534Z,23.27
2018-04-10T21:31:02.686Z,22.57
2018-04-10T21:33:05.813Z,25.43
2018-04-10T21:35:08.968Z,28.43
2018-04-10T21:37:12.101Z,28.10
2018-04-10T21:39:16.039Z,30.63
2018-04-10T21:41:19.935Z,32.90
2018-04-10T21:43:29.475Z,27.43
2018-04-10T21:45:32.602Z,25.10
2018-04-10T21:47:35.795Z,22.93
2018-04-10T21:49:38.937Z,22.67
2018-04-10T21:51:42.952Z,21.30
2018-04-10T21:53:47.581Z,18.83
2018-04-10T21:55:50.788Z,18.90
2018-04-10T21:57:53.919Z,16.47
2018-04-10T21:59:57.047Z,15.97
2018-04-10T22:02:00.261Z,15.57
2018-04-10T22:04:03.390Z,14.23
2018-04-10T22:06:07.273Z,13.93
2018-04-10T22:08:10.479Z,12.90
2018-04-10T22:10:14.418Z,12.50
2018-04-10T22:12:17.517Z,12.00
2018-04-10T22:14:20.671Z,11.00
2018-04-10T22:16:24.610Z,10.30
2018-04-10T22:18:27.769Z,9.63
2018-04-10T22:20:30.889Z,9.77
2018-04-10T22:22:34.041Z,9.33
2018-04-10T22:24:37.929Z,9.00
2018-04-10T22:26:41.887Z,8.03
2018-04-10T22:28:45.034Z,11.60
2018-04-10T22:30:48.176Z,12.80
2018-04-10T22:32:51.267Z,13.43
2018-04-10T22:34:55.231Z,11.87
2018-04-10T22:36:58.371Z,13.30
2018-04-10T22:39:01.554Z,13.47
2018-04-10T22:41:05.474Z,14.60
2018-04-10T22:43:09.820Z,15.43
2018-04-10T22:45:12.980Z,15.77
2018-04-10T22:47:16.149Z,14.10
2018-04-10T22:49:19.348Z,13.43
2018-04-10T22:51:22.473Z,13.17
2018-04-10T22:53:26.841Z,12.43
2018-04-10T22:55:30.035Z,11.43
2018-04-10T22:57:33.173Z,11.63
2018-04-10T22:59:36.294Z,9.80
2018-04-10T23:01:39.463Z,9.67
2018-04-10T23:03:42.618Z,8.67
2018-04-10T23:05:45.841Z,9.43
2018-04-10T23:07:48.985Z,9.07
2018-04-10T23:09:52.203Z,8.60
2018-04-10T23:11:55.320Z,8.03
2018-04-10T23:13:58.486Z,6.67
2018-04-10T23:16:01.966Z,6.93
2018-04-10T23:18:05.126Z,6.23
2018-04-10T23:20:09.006Z,6.17
2018-04-10T23:22:12.159Z,6.27
2018-04-10T23:24:15.367Z,5.97
2018-04-10T23:26:18.464Z,5.77
2018-04-10T23:28:21.669Z,5.73
2018-04-10T23:30:24.765Z,5.23
